Fayette, Maine
Current Conditions -  °F | °C
As of 1:53 AM on Wednesday 22 Oct 2014 (Local Time) from KAUG Reporting Station
Light Rain Light Rain  
Wind Chill: 38°   Ceiling: 400
Heat Index: 44°   Visibility: 6mi
Dew Point: 43°   Wind: 13mph
Humidity: 96%   Direction: 20°NNE
Pressure: 30.12"   Gusts: NA
Location:  44.4361°N, 70.0741°W
Report Text: KAUG 220553Z AUTO 02011KT 6SM -RA BR OVC004 07/06 A3012 RMK AO2 SLP202 P0003 60018 T00670061 10072 20067 58000
Loading
Personal Weather Stations






























Interactive Weather Map
Tropical Storm Tracking
New forecast layout! Learn more

10-Day Weather Forecast

Advertisements
Track Severe Weather on mobile